createdAt,value
2022-09-28T00:00:40.592Z,63.58
2022-09-28T00:03:29.884Z,63.59
2022-09-28T00:06:03.340Z,63.66
2022-09-28T00:08:32.246Z,63.64
2022-09-28T00:11:02.415Z,63.69
2022-09-28T00:13:32.923Z,63.61
2022-09-28T00:16:07.479Z,63.74
2022-09-28T00:18:37.879Z,63.76
2022-09-28T00:21:08.285Z,63.68
2022-09-28T00:23:59.352Z,63.50
2022-09-28T00:26:28.541Z,63.73
2022-09-28T00:29:00.047Z,63.82
2022-09-28T00:31:32.059Z,63.63
2022-09-28T00:34:05.552Z,63.59
2022-09-28T00:36:35.365Z,63.61
2022-09-28T00:39:07.791Z,63.52
2022-09-28T00:41:36.963Z,63.46
2022-09-28T00:44:37.123Z,63.46
2022-09-28T00:47:15.315Z,63.44
2022-09-28T00:49:45.933Z,63.73
2022-09-28T00:52:18.324Z,63.78
2022-09-28T00:54:50.443Z,63.95
2022-09-28T00:57:20.396Z,63.89
2022-09-28T00:59:51.893Z,64.07
2022-09-28T01:02:21.867Z,64.11
2022-09-28T01:04:52.539Z,64.00
2022-09-28T01:07:23.522Z,64.07
2022-09-28T01:09:53.977Z,64.06
2022-09-28T01:12:23.365Z,64.05
2022-09-28T01:14:54.189Z,63.89
2022-09-28T01:17:31.087Z,63.89
2022-09-28T01:20:40.824Z,63.76
2022-09-28T01:23:40.658Z,63.84
2022-09-28T01:26:42.717Z,63.97
2022-09-28T01:29:18.983Z,64.01
2022-09-28T01:31:51.291Z,64.02
2022-09-28T01:34:25.870Z,64.13
2022-09-28T01:36:58.601Z,64.00
2022-09-28T01:39:32.682Z,63.83
2022-09-28T01:42:05.793Z,63.67
2022-09-28T01:44:39.312Z,63.63
2022-09-28T01:47:12.635Z,63.44
2022-09-28T01:49:45.129Z,63.36
2022-09-28T01:52:18.189Z,63.20
2022-09-28T01:54:51.669Z,63.43
2022-09-28T01:57:25.116Z,63.18
2022-09-28T02:00:01.958Z,62.99
2022-09-28T02:02:34.978Z,62.89
2022-09-28T02:05:06.954Z,62.81
2022-09-28T02:07:39.794Z,62.77
2022-09-28T02:10:15.369Z,62.92
2022-09-28T02:12:46.984Z,62.85
2022-09-28T02:15:20.103Z,62.87
2022-09-28T02:17:49.230Z,62.74
2022-09-28T02:20:18.790Z,62.74
2022-09-28T02:22:50.973Z,62.66
2022-09-28T02:25:26.196Z,62.42
2022-09-28T02:27:57.001Z,62.51
2022-09-28T02:30:25.617Z,62.48
2022-09-28T02:33:01.208Z,62.15
2022-09-28T02:35:29.871Z,62.13
2022-09-28T02:37:58.366Z,62.17
2022-09-28T02:40:31.844Z,62.06
2022-09-28T02:43:09.544Z,62.18
2022-09-28T02:45:59.827Z,62.09
2022-09-28T02:48:52.235Z,62.01
2022-09-28T02:51:32.361Z,61.94
2022-09-28T02:54:18.911Z,61.95
2022-09-28T02:56:55.484Z,62.20
2022-09-28T03:03:31.054Z,61.96
2022-09-28T03:06:03.654Z,61.79
2022-09-28T03:08:35.821Z,61.73
2022-09-28T03:11:11.049Z,61.73
2022-09-28T03:13:43.068Z,61.73
2022-09-28T03:16:14.616Z,61.58
2022-09-28T03:18:45.349Z,61.68
2022-09-28T03:21:15.412Z,61.68
2022-09-28T03:23:43.958Z,61.77
2022-09-28T03:26:12.849Z,61.79
2022-09-28T03:28:43.567Z,61.77
2022-09-28T03:31:12.835Z,61.74
2022-09-28T03:33:42.296Z,61.84
2022-09-28T03:36:11.235Z,61.70
2022-09-28T03:38:40.126Z,61.98
2022-09-28T03:41:09.231Z,62.07
2022-09-28T03:43:37.611Z,62.05
2022-09-28T03:46:07.563Z,62.08
2022-09-28T03:48:36.983Z,61.99
2022-09-28T03:51:08.612Z,61.99
2022-09-28T03:53:39.448Z,62.13
2022-09-28T03:56:12.660Z,61.95
2022-09-28T03:58:42.816Z,61.96
2022-09-28T04:01:17.948Z,61.77
2022-09-28T04:03:53.080Z,61.86
2022-09-28T04:06:22.860Z,61.87
2022-09-28T04:08:54.202Z,61.83
2022-09-28T04:11:25.417Z,61.74
2022-09-28T04:13:53.938Z,61.91
2022-09-28T04:16:23.025Z,61.64
2022-09-28T04:18:52.226Z,61.70
2022-09-28T04:21:21.966Z,61.68
2022-09-28T04:23:50.431Z,61.72
2022-09-28T04:26:21.375Z,61.79
2022-09-28T04:29:09.281Z,61.62
2022-09-28T04:31:42.503Z,61.70
2022-09-28T04:34:11.901Z,61.65
2022-09-28T04:36:42.021Z,61.76
2022-09-28T04:39:11.928Z,61.85
2022-09-28T04:41:40.394Z,61.74
2022-09-28T04:44:09.900Z,61.89
2022-09-28T04:46:40.743Z,61.99
2022-09-28T04:49:11.467Z,61.94
2022-09-28T04:51:42.290Z,62.05
2022-09-28T04:54:15.606Z,62.14
2022-09-28T04:56:45.440Z,62.13
2022-09-28T04:59:14.100Z,62.21
2022-09-28T05:01:45.111Z,62.02
2022-09-28T05:04:16.981Z,61.96
2022-09-28T05:06:45.693Z,61.95
2022-09-28T05:09:14.716Z,61.90
2022-09-28T05:11:43.853Z,61.70
2022-09-28T05:14:15.928Z,61.55
2022-09-28T05:16:47.158Z,61.48
2022-09-28T05:19:16.066Z,61.54
2022-09-28T05:21:48.211Z,61.53
2022-09-28T05:24:17.694Z,61.39
2022-09-28T05:26:47.975Z,61.39
2022-09-28T05:29:18.153Z,61.38
2022-09-28T05:31:47.378Z,61.26
2022-09-28T05:34:17.521Z,61.11
2022-09-28T05:36:46.791Z,61.17
2022-09-28T05:39:17.176Z,61.06
2022-09-28T05:41:45.696Z,61.07
2022-09-28T05:44:16.585Z,61.23
2022-09-28T05:46:46.297Z,61.38
2022-09-28T05:49:15.585Z,61.15
2022-09-28T05:51:44.237Z,61.24
2022-09-28T05:54:14.784Z,61.14
2022-09-28T05:56:44.509Z,61.32
2022-09-28T05:59:13.907Z,61.13
2022-09-28T06:01:43.115Z,61.13
2022-09-28T06:04:12.179Z,60.99
2022-09-28T06:06:40.755Z,60.88
2022-09-28T06:09:11.222Z,60.70
2022-09-28T06:11:41.244Z,60.36
2022-09-28T06:14:13.012Z,60.38
2022-09-28T06:16:43.973Z,60.43
2022-09-28T06:19:13.137Z,60.22
2022-09-28T06:21:42.530Z,60.28
2022-09-28T06:24:11.780Z,60.04
2022-09-28T06:26:41.863Z,60.21
2022-09-28T06:29:18.680Z,60.02
2022-09-28T06:31:48.299Z,59.80
2022-09-28T06:34:19.355Z,59.47
2022-09-28T06:36:49.568Z,59.12
2022-09-28T06:39:18.949Z,59.20
2022-09-28T06:41:47.556Z,59.28
2022-09-28T06:44:19.397Z,59.20
2022-09-28T06:46:47.867Z,59.12
2022-09-28T06:49:19.445Z,59.16
2022-09-28T06:51:50.605Z,59.00
2022-09-28T06:54:25.016Z,58.80
2022-09-28T06:56:53.740Z,58.65
2022-09-28T06:59:22.400Z,58.42
2022-09-28T07:01:53.175Z,58.38
2022-09-28T07:04:22.842Z,57.73
2022-09-28T07:06:54.410Z,57.46
2022-09-28T07:09:32.370Z,57.77
2022-09-28T07:12:04.461Z,57.57
2022-09-28T07:14:47.352Z,57.20
2022-09-28T07:17:18.180Z,56.96
2022-09-28T07:19:52.314Z,56.65
2022-09-28T07:22:35.443Z,56.45
2022-09-28T07:25:09.599Z,56.70
2022-09-28T07:27:39.175Z,57.03
2022-09-28T07:30:10.787Z,57.17
2022-09-28T07:32:39.653Z,56.64
2022-09-28T07:35:10.177Z,56.74
2022-09-28T07:37:39.856Z,56.67
2022-09-28T07:40:30.124Z,55.95
2022-09-28T07:43:05.563Z,55.70
2022-09-28T07:45:36.435Z,56.03
2022-09-28T07:48:06.380Z,55.99
2022-09-28T07:50:36.160Z,55.70
2022-09-28T07:53:06.186Z,56.10
2022-09-28T07:55:35.614Z,55.92
2022-09-28T07:58:04.834Z,55.55
2022-09-28T08:00:34.518Z,55.28
2022-09-28T08:03:05.521Z,54.88
2022-09-28T08:05:35.375Z,54.77
2022-09-28T08:08:05.447Z,54.17
2022-09-28T08:10:35.154Z,54.04
2022-09-28T08:13:08.687Z,54.05
2022-09-28T08:15:38.726Z,53.15
2022-09-28T08:18:07.836Z,53.06
2022-09-28T08:21:07.947Z,52.99
2022-09-28T08:23:38.880Z,52.87
2022-09-28T08:26:10.984Z,52.36
2022-09-28T08:28:43.096Z,51.47
2022-09-28T08:31:11.991Z,51.37
2022-09-28T08:33:42.413Z,51.71
2022-09-28T08:36:13.828Z,51.84
2022-09-28T08:38:43.345Z,51.86
2022-09-28T08:41:18.916Z,51.65
2022-09-28T08:43:57.093Z,51.40
2022-09-28T08:46:32.160Z,51.20
2022-09-28T08:49:24.934Z,50.96
2022-09-28T08:52:00.398Z,50.85
2022-09-28T08:54:38.558Z,51.00
2022-09-28T08:57:10.444Z,50.46
2022-09-28T08:59:45.546Z,50.59
2022-09-28T09:02:17.855Z,50.05
2022-09-28T09:04:47.983Z,50.26
2022-09-28T09:07:46.877Z,48.93
2022-09-28T09:10:28.169Z,48.59
2022-09-28T09:13:04.309Z,48.54
2022-09-28T09:15:42.752Z,48.64
2022-09-28T09:18:22.280Z,48.17
2022-09-28T09:20:56.120Z,47.40
2022-09-28T09:23:34.171Z,46.74
2022-09-28T09:26:09.470Z,46.79
2022-09-28T09:29:03.614Z,46.22
2022-09-28T09:31:42.068Z,46.25
2022-09-28T09:34:25.510Z,46.02
2022-09-28T09:37:09.299Z,46.37
2022-09-28T09:39:46.509Z,46.09
2022-09-28T09:42:27.571Z,45.96
2022-09-28T09:45:18.689Z,46.11
2022-09-28T09:47:50.872Z,45.65
2022-09-28T09:50:30.262Z,46.03
2022-09-28T09:53:02.911Z,45.99
2022-09-28T09:55:36.529Z,45.97
2022-09-28T09:58:12.722Z,45.51
2022-09-28T10:00:44.272Z,45.24
2022-09-28T10:03:19.843Z,44.91
2022-09-28T10:05:53.821Z,44.67
2022-09-28T10:08:23.614Z,44.34
2022-09-28T10:10:56.356Z,44.28
2022-09-28T10:13:24.988Z,44.71
2022-09-28T10:15:55.673Z,44.30
2022-09-28T10:18:24.979Z,44.54
2022-09-28T10:20:53.867Z,44.59
2022-09-28T10:23:25.921Z,44.53
2022-09-28T10:25:57.012Z,44.46
2022-09-28T10:28:33.209Z,44.48
2022-09-28T10:31:03.286Z,43.91
2022-09-28T10:33:34.949Z,43.85
2022-09-28T10:36:07.976Z,44.07
2022-09-28T10:38:37.170Z,43.97
2022-09-28T10:41:12.804Z,43.65
2022-09-28T10:44:07.595Z,43.71
2022-09-28T10:46:39.496Z,43.82
2022-09-28T10:49:14.929Z,43.16
2022-09-28T10:51:46.203Z,43.42
2022-09-28T10:54:18.244Z,43.53
2022-09-28T10:56:48.462Z,43.75
2022-09-28T10:59:37.118Z,43.54
2022-09-28T11:02:21.307Z,43.49
2022-09-28T11:04:55.005Z,42.97
2022-09-28T11:07:26.353Z,43.40
2022-09-28T11:09:56.085Z,42.61
2022-09-28T11:12:27.379Z,42.44
2022-09-28T11:15:02.445Z,42.59
2022-09-28T11:17:38.244Z,42.75
2022-09-28T11:20:29.241Z,42.72
2022-09-28T11:22:59.708Z,42.64
2022-09-28T11:25:30.685Z,42.27
2022-09-28T11:28:03.923Z,42.14
2022-09-28T11:30:37.989Z,42.19
2022-09-28T11:33:11.495Z,41.97
2022-09-28T11:35:46.513Z,41.91
2022-09-28T11:38:33.572Z,42.23
2022-09-28T11:41:14.780Z,42.19
2022-09-28T11:44:02.873Z,42.06
2022-09-28T11:46:38.010Z,42.12
2022-09-28T11:49:15.003Z,41.89
2022-09-28T11:51:45.327Z,41.42
2022-09-28T11:54:19.514Z,41.46
2022-09-28T11:56:52.910Z,41.40
2022-09-28T11:59:27.107Z,41.53
2022-09-28T12:01:57.925Z,41.80
2022-09-28T12:04:34.314Z,41.76
2022-09-28T12:07:06.783Z,41.18
2022-09-28T12:09:38.207Z,40.41
2022-09-28T12:12:15.661Z,39.77
2022-09-28T12:14:46.360Z,39.66
2022-09-28T12:17:21.569Z,39.74
2022-09-28T12:19:54.866Z,39.90
2022-09-28T12:22:28.972Z,39.59
2022-09-28T12:24:58.311Z,39.53
2022-09-28T12:27:32.819Z,39.92
2022-09-28T12:30:05.319Z,40.39
2022-09-28T12:32:38.274Z,39.88
2022-09-28T12:35:15.594Z,39.97
2022-09-28T12:38:24.316Z,40.31
2022-09-28T12:40:59.271Z,40.43
2022-09-28T12:43:55.785Z,40.47
2022-09-28T12:46:39.110Z,40.55
2022-09-28T12:52:29.370Z,40.26
2022-09-28T12:55:19.629Z,40.15
2022-09-28T12:57:57.676Z,40.02
2022-09-28T13:00:29.398Z,39.68
2022-09-28T13:03:26.431Z,39.69
2022-09-28T13:06:24.068Z,39.72
2022-09-28T13:09:05.146Z,39.82
2022-09-28T13:11:43.486Z,39.01
2022-09-28T13:14:28.864Z,39.13
2022-09-28T13:17:02.774Z,39.51
2022-09-28T13:19:40.732Z,39.86
2022-09-28T13:22:20.454Z,39.73
2022-09-28T13:24:51.732Z,39.36
2022-09-28T13:27:28.796Z,39.49
2022-09-28T13:30:02.753Z,39.65
2022-09-28T13:32:32.215Z,39.78
2022-09-28T13:35:02.784Z,39.90
2022-09-28T13:37:33.899Z,40.21
2022-09-28T13:40:05.527Z,40.45
2022-09-28T13:43:10.558Z,40.60
2022-09-28T13:45:50.750Z,40.78
2022-09-28T13:48:22.371Z,40.62
2022-09-28T13:51:03.996Z,40.52
2022-09-28T13:53:43.258Z,40.83
2022-09-28T13:56:24.291Z,40.93
2022-09-28T13:58:55.862Z,41.23
2022-09-28T14:01:29.113Z,41.45
2022-09-28T14:04:13.304Z,41.29
2022-09-28T14:06:48.141Z,41.59
2022-09-28T14:09:42.001Z,41.64
2022-09-28T14:12:45.841Z,42.08
2022-09-28T14:15:41.433Z,42.36
2022-09-28T14:18:23.608Z,42.32
2022-09-28T14:21:21.150Z,42.56
2022-09-28T14:24:10.819Z,42.52
2022-09-28T14:27:03.051Z,42.50
2022-09-28T14:29:37.195Z,42.67
2022-09-28T14:32:22.904Z,42.59
2022-09-28T14:34:59.819Z,42.64
2022-09-28T14:37:50.746Z,42.63
2022-09-28T14:40:52.011Z,42.53
2022-09-28T14:43:24.766Z,42.48
2022-09-28T14:46:36.997Z,42.39
2022-09-28T14:49:48.172Z,42.28
2022-09-28T14:52:42.229Z,42.42
2022-09-28T14:55:26.678Z,42.54
2022-09-28T14:57:58.650Z,42.52
2022-09-28T15:00:31.445Z,42.50
2022-09-28T15:03:02.632Z,42.65
2022-09-28T15:05:38.247Z,42.65
2022-09-28T15:08:08.105Z,42.85
2022-09-28T15:10:42.000Z,42.85
2022-09-28T15:13:20.818Z,42.78
2022-09-28T15:15:53.444Z,42.97
2022-09-28T15:18:43.680Z,42.98
2022-09-28T15:21:13.890Z,43.07
2022-09-28T15:23:47.124Z,43.20
2022-09-28T15:26:27.026Z,43.01
2022-09-28T15:28:56.591Z,43.14
2022-09-28T15:31:27.442Z,43.23
2022-09-28T15:34:15.691Z,43.27
2022-09-28T15:36:46.356Z,43.39
2022-09-28T15:39:18.906Z,43.53
2022-09-28T15:41:50.511Z,43.58
2022-09-28T15:44:29.153Z,43.61
2022-09-28T15:47:10.589Z,43.89
2022-09-28T15:49:44.744Z,43.87
2022-09-28T15:52:37.119Z,44.26
2022-09-28T15:55:19.927Z,44.60
2022-09-28T15:57:50.855Z,45.87
2022-09-28T16:00:28.571Z,46.49
2022-09-28T16:03:21.860Z,48.05
2022-09-28T16:05:51.628Z,49.60
2022-09-28T16:08:24.032Z,50.31
2022-09-28T16:10:57.140Z,50.51
2022-09-28T16:13:26.841Z,50.99
2022-09-28T16:15:59.206Z,51.46
2022-09-28T16:18:29.896Z,51.71
2022-09-28T16:21:23.804Z,51.92
2022-09-28T16:23:55.040Z,52.27
2022-09-28T16:26:31.800Z,52.52
2022-09-28T16:29:02.934Z,52.87
2022-09-28T16:31:36.587Z,53.07
2022-09-28T16:34:21.611Z,53.33
2022-09-28T16:36:52.252Z,53.52
2022-09-28T16:39:23.110Z,53.72
2022-09-28T16:41:54.764Z,53.88
2022-09-28T16:44:27.997Z,54.11
2022-09-28T16:47:01.060Z,54.27
2022-09-28T16:49:35.304Z,54.37
2022-09-28T16:52:11.194Z,54.53
2022-09-28T16:55:07.445Z,54.59
2022-09-28T16:57:49.655Z,54.81
2022-09-28T17:00:24.906Z,54.94
2022-09-28T17:02:55.592Z,54.97
2022-09-28T17:05:25.317Z,55.09
2022-09-28T17:08:02.657Z,55.26
2022-09-28T17:10:50.125Z,55.38
2022-09-28T17:13:30.845Z,55.56
2022-09-28T17:16:01.915Z,55.68
2022-09-28T17:18:32.499Z,55.84
2022-09-28T17:21:05.253Z,55.92
2022-09-28T17:23:35.210Z,55.89
2022-09-28T17:26:06.323Z,56.04
2022-09-28T17:28:38.299Z,56.13
2022-09-28T17:31:15.537Z,56.23
2022-09-28T17:33:45.579Z,56.23
2022-09-28T17:36:17.336Z,56.31
2022-09-28T17:38:51.114Z,56.61
2022-09-28T17:41:21.832Z,56.71
2022-09-28T17:43:51.796Z,56.81
2022-09-28T17:46:27.102Z,56.96
2022-09-28T17:49:00.409Z,56.97
2022-09-28T17:51:31.691Z,57.05
2022-09-28T17:54:01.204Z,57.16
2022-09-28T17:56:32.618Z,57.21
2022-09-28T17:59:06.408Z,57.46
2022-09-28T18:01:39.784Z,57.45
2022-09-28T18:04:23.029Z,57.50
2022-09-28T18:06:58.740Z,57.73
2022-09-28T18:09:29.975Z,58.10
2022-09-28T18:12:06.140Z,57.73
2022-09-28T18:14:38.518Z,57.60
2022-09-28T18:17:08.203Z,57.44
2022-09-28T18:19:38.654Z,57.29
2022-09-28T18:22:07.548Z,57.46
2022-09-28T18:24:39.225Z,57.44
2022-09-28T18:27:09.520Z,57.54
2022-09-28T18:29:39.922Z,57.57
2022-09-28T18:32:11.039Z,58.07
2022-09-28T18:34:41.165Z,57.91
2022-09-28T18:37:11.461Z,57.84
2022-09-28T18:39:41.779Z,57.80
2022-09-28T18:42:11.657Z,57.61
2022-09-28T18:44:41.484Z,57.68
2022-09-28T18:47:13.063Z,57.57
2022-09-28T18:49:46.587Z,57.51
2022-09-28T18:52:16.477Z,57.67
2022-09-28T18:54:46.588Z,57.78
2022-09-28T18:57:17.354Z,57.99
2022-09-28T18:59:48.365Z,58.38
2022-09-28T19:02:19.722Z,58.49
2022-09-28T19:04:48.576Z,58.80
2022-09-28T19:07:20.979Z,58.90
2022-09-28T19:09:53.031Z,59.01
2022-09-28T19:12:21.800Z,58.97
2022-09-28T19:14:51.425Z,59.00
2022-09-28T19:17:22.575Z,59.02
2022-09-28T19:19:55.358Z,58.99
2022-09-28T19:22:25.065Z,58.92
2022-09-28T19:24:56.684Z,58.80
2022-09-28T19:27:29.828Z,58.84
2022-09-28T19:29:59.297Z,58.92
2022-09-28T19:32:32.554Z,58.90
2022-09-28T19:35:04.868Z,59.01
2022-09-28T19:37:36.386Z,58.96
2022-09-28T19:40:10.050Z,58.99
2022-09-28T19:42:39.537Z,59.02
2022-09-28T19:45:11.198Z,59.19
2022-09-28T19:47:40.276Z,59.56
2022-09-28T19:50:10.834Z,59.67
2022-09-28T19:52:41.024Z,59.80
2022-09-28T19:55:10.462Z,59.95
2022-09-28T19:57:39.080Z,59.98
2022-09-28T20:00:13.492Z,60.04
2022-09-28T20:02:43.233Z,60.03
2022-09-28T20:05:13.303Z,60.12
2022-09-28T20:07:42.337Z,60.11
2022-09-28T20:10:12.158Z,60.07
2022-09-28T20:12:47.162Z,60.05
2022-09-28T20:15:16.943Z,60.13
2022-09-28T20:17:45.620Z,60.19
2022-09-28T20:20:14.447Z,60.20
2022-09-28T20:22:44.439Z,60.15
2022-09-28T20:25:14.336Z,59.99
2022-09-28T20:27:43.142Z,59.97
2022-09-28T20:30:14.672Z,59.99
2022-09-28T20:32:49.431Z,60.10
2022-09-28T20:35:32.325Z,60.20
2022-09-28T20:38:08.819Z,60.21
2022-09-28T20:40:41.391Z,60.45
2022-09-28T20:43:11.991Z,60.70
2022-09-28T20:45:43.524Z,61.28
2022-09-28T20:48:14.897Z,61.54
2022-09-28T20:50:44.519Z,61.48
2022-09-28T20:53:14.017Z,61.48
2022-09-28T20:55:44.011Z,61.41
2022-09-28T20:58:13.890Z,61.51
2022-09-28T21:00:42.554Z,61.40
2022-09-28T21:03:12.478Z,61.39
2022-09-28T21:05:41.989Z,61.50
2022-09-28T21:08:14.129Z,61.43
2022-09-28T21:10:47.749Z,61.37
2022-09-28T21:13:17.709Z,61.39
2022-09-28T21:15:46.366Z,61.46
2022-09-28T21:18:17.578Z,61.43
2022-09-28T21:20:48.389Z,61.51
2022-09-28T21:23:23.953Z,61.40
2022-09-28T21:26:03.550Z,61.46
2022-09-28T21:28:33.998Z,61.49
2022-09-28T21:31:05.478Z,61.47
2022-09-28T21:33:35.122Z,61.45
2022-09-28T21:36:07.085Z,61.55
2022-09-28T21:38:36.088Z,61.49
2022-09-28T21:41:06.078Z,61.36
2022-09-28T21:43:34.734Z,61.24
2022-09-28T21:46:05.880Z,61.37
2022-09-28T21:48:34.734Z,61.48
2022-09-28T21:51:07.337Z,61.47
2022-09-28T21:53:37.786Z,61.51
2022-09-28T21:56:10.306Z,61.48
2022-09-28T21:58:39.761Z,61.55
2022-09-28T22:01:16.149Z,61.54
2022-09-28T22:03:48.293Z,61.64
2022-09-28T22:06:20.908Z,61.55
2022-09-28T22:08:50.181Z,61.47
2022-09-28T22:11:22.397Z,61.47
2022-09-28T22:13:53.736Z,61.60
2022-09-28T22:16:24.791Z,61.67
2022-09-28T22:18:54.403Z,61.58
2022-09-28T22:21:24.226Z,61.67
2022-09-28T22:23:54.378Z,61.54
2022-09-28T22:26:24.226Z,61.50
2022-09-28T22:28:55.709Z,61.45
2022-09-28T22:31:26.713Z,61.44
2022-09-28T22:33:55.837Z,61.45
2022-09-28T22:36:27.623Z,61.37
2022-09-28T22:38:58.721Z,61.52
2022-09-28T22:41:29.537Z,61.62
2022-09-28T22:43:59.737Z,61.55
2022-09-28T22:46:32.440Z,61.37
2022-09-28T22:49:02.798Z,61.45
2022-09-28T22:51:32.065Z,61.46
2022-09-28T22:54:03.666Z,61.36
2022-09-28T22:56:33.473Z,61.14
2022-09-28T22:59:04.209Z,60.95
2022-09-28T23:01:36.105Z,60.87
2022-09-28T23:04:05.707Z,60.89
2022-09-28T23:06:35.623Z,60.95
2022-09-28T23:09:06.814Z,60.91
2022-09-28T23:11:35.976Z,60.91
2022-09-28T23:14:07.053Z,60.92
2022-09-28T23:16:35.423Z,60.85
2022-09-28T23:19:06.564Z,60.52
2022-09-28T23:21:36.793Z,60.40
2022-09-28T23:24:06.289Z,60.49
2022-09-28T23:26:36.353Z,60.28
2022-09-28T23:29:06.227Z,60.38
2022-09-28T23:31:36.225Z,60.26
2022-09-28T23:34:06.908Z,60.41
2022-09-28T23:36:36.274Z,60.50
2022-09-28T23:39:09.004Z,60.36
2022-09-28T23:41:40.310Z,60.19
2022-09-28T23:44:08.765Z,59.99
2022-09-28T23:46:39.086Z,60.07
2022-09-28T23:49:08.723Z,60.15
2022-09-28T23:51:38.823Z,60.24
2022-09-28T23:54:08.558Z,60.21
2022-09-28T23:56:39.714Z,60.33
2022-09-28T23:59:13.397Z,60.28
